createdAt,value
2023-03-06T00:00:22.512Z,96582.69
2023-03-06T00:02:49.206Z,96577.09
2023-03-06T00:05:16.392Z,96586.13
2023-03-06T00:07:43.507Z,96581.06
2023-03-06T00:10:28.194Z,96583.66
2023-03-06T00:12:57.055Z,96587.22
2023-03-06T00:15:25.414Z,96591.75
2023-03-06T00:17:52.304Z,96587.09
2023-03-06T00:20:19.898Z,96581.91
2023-03-06T00:22:47.318Z,96570.34
2023-03-06T00:25:21.426Z,96570.97
2023-03-06T00:27:49.344Z,96554.47
2023-03-06T00:30:19.413Z,96575.38
2023-03-06T00:32:46.492Z,96564.72
2023-03-06T00:35:13.586Z,96566.38
2023-03-06T00:37:41.284Z,96560.78
2023-03-06T00:40:11.946Z,96560.34
2023-03-06T00:42:39.576Z,96558.03
2023-03-06T00:45:06.865Z,96536.91
2023-03-06T00:47:33.832Z,96543.56
2023-03-06T00:50:00.632Z,96546.69
2023-03-06T00:52:27.386Z,96537.97
2023-03-06T00:54:54.108Z,96541.84
2023-03-06T00:57:20.978Z,96525.88
2023-03-06T00:59:47.753Z,96535.13
2023-03-06T01:02:15.065Z,96531.97
2023-03-06T01:04:41.876Z,96520.91
2023-03-06T01:07:08.607Z,96532.38
2023-03-06T01:09:35.324Z,96519.81
2023-03-06T01:12:02.118Z,96526.22
2023-03-06T01:14:29.088Z,96520.34
2023-03-06T01:16:55.840Z,96510.09
2023-03-06T01:19:22.620Z,96513.66
2023-03-06T01:21:49.320Z,96514.47
2023-03-06T01:24:16.030Z,96490.09
2023-03-06T01:26:42.771Z,96519.81
2023-03-06T01:29:09.762Z,96506.59
2023-03-06T01:31:36.609Z,96515.44
2023-03-06T01:34:03.448Z,96513.81
2023-03-06T01:36:30.156Z,96509.03
2023-03-06T01:38:57.077Z,96502.75
2023-03-06T01:41:24.515Z,96484.75
2023-03-06T01:43:51.566Z,96503.31
2023-03-06T01:46:18.241Z,96495.25
2023-03-06T01:48:46.903Z,96479.56
2023-03-06T01:51:14.916Z,96480.63
2023-03-06T01:53:43.784Z,96477.34
2023-03-06T01:56:13.387Z,96467.56
2023-03-06T01:58:43.734Z,96480.78
2023-03-06T02:01:13.033Z,96455.81
2023-03-06T02:03:42.468Z,96466.03
2023-03-06T02:06:09.803Z,96458.41
2023-03-06T02:08:36.660Z,96462.66
2023-03-06T02:11:14.844Z,96464.53
2023-03-06T02:13:43.198Z,96464.81
2023-03-06T02:16:11.284Z,96463.03
2023-03-06T02:18:40.965Z,96448.19
2023-03-06T02:21:10.674Z,96445.97
2023-03-06T02:23:50.480Z,96442.44
2023-03-06T02:26:18.127Z,96454.19
2023-03-06T02:28:44.872Z,96446.13
2023-03-06T02:31:28.758Z,96436.97
2023-03-06T02:34:13.948Z,96438.03
2023-03-06T02:36:48.789Z,96440.78
2023-03-06T02:39:18.366Z,96433.44
2023-03-06T02:41:45.436Z,96432.59
2023-03-06T02:44:14.012Z,96422.22
2023-03-06T02:46:42.460Z,96417.03
2023-03-06T02:49:09.956Z,96395.50
2023-03-06T02:51:36.669Z,96419.34
2023-03-06T02:54:03.487Z,96409.25
2023-03-06T02:56:30.301Z,96419.19
2023-03-06T02:58:57.562Z,96420.03
2023-03-06T03:01:25.692Z,96405.19
2023-03-06T03:03:52.575Z,96410.09
2023-03-06T03:06:21.052Z,96396.19
2023-03-06T03:08:48.967Z,96412.81
2023-03-06T03:11:16.293Z,96396.03
2023-03-06T03:13:44.339Z,96404.22
2023-03-06T03:16:18.966Z,96407.19
2023-03-06T03:18:50.909Z,96413.34
2023-03-06T03:21:19.982Z,96405.56
2023-03-06T03:23:47.987Z,96397.78
2023-03-06T03:26:18.756Z,96392.75
2023-03-06T03:28:52.696Z,96390.94
2023-03-06T03:31:21.266Z,96393.25
2023-03-06T03:33:48.087Z,96382.22
2023-03-06T03:36:14.918Z,96380.78
2023-03-06T03:38:45.674Z,96375.50
2023-03-06T03:41:13.473Z,96376.44
2023-03-06T03:43:40.315Z,96374.66
2023-03-06T03:46:07.133Z,96368.66
2023-03-06T03:48:34.164Z,96356.91
2023-03-06T03:51:12.956Z,96355.81
2023-03-06T03:53:44.748Z,96350.94
2023-03-06T03:56:14.184Z,96355.97
2023-03-06T03:58:52.487Z,96353.66
2023-03-06T04:01:19.959Z,96341.72
2023-03-06T04:03:46.885Z,96364.69
2023-03-06T04:06:15.244Z,96344.00
2023-03-06T04:08:42.460Z,96357.75
2023-03-06T04:11:09.692Z,96349.72
2023-03-06T04:13:36.518Z,96353.66
2023-03-06T04:16:04.614Z,96343.31
2023-03-06T04:18:33.201Z,96351.25
2023-03-06T04:21:04.287Z,96349.63
2023-03-06T04:23:31.433Z,96325.56
2023-03-06T04:25:58.482Z,96344.06
2023-03-06T04:28:25.523Z,96346.13
2023-03-06T04:30:52.526Z,96346.97
2023-03-06T04:33:20.469Z,96336.22
2023-03-06T04:35:49.388Z,96332.28
2023-03-06T04:38:21.690Z,96333.63
2023-03-06T04:40:49.801Z,96347.28
2023-03-06T04:43:16.872Z,96332.66
2023-03-06T04:45:43.846Z,96312.28
2023-03-06T04:48:14.489Z,96332.72
2023-03-06T04:50:41.175Z,96330.13
2023-03-06T04:53:08.771Z,96327.97
2023-03-06T04:55:35.596Z,96322.66
2023-03-06T04:58:02.686Z,96329.03
2023-03-06T05:00:31.726Z,96327.44
2023-03-06T05:03:00.353Z,96320.88
2023-03-06T05:05:30.243Z,96323.75
2023-03-06T05:07:57.338Z,96311.19
2023-03-06T05:10:24.316Z,96307.09
2023-03-06T05:12:51.145Z,96299.06
2023-03-06T05:15:17.959Z,96300.44
2023-03-06T05:17:47.655Z,96315.25
2023-03-06T05:20:16.777Z,96278.38
2023-03-06T05:22:44.768Z,96307.47
2023-03-06T05:25:11.639Z,96289.16
2023-03-06T05:27:39.528Z,96291.44
2023-03-06T05:30:07.551Z,96310.50
2023-03-06T05:32:35.777Z,96300.59
2023-03-06T05:35:03.459Z,96299.47
2023-03-06T05:37:46.590Z,96308.44
2023-03-06T05:40:14.366Z,96289.25
2023-03-06T05:42:41.102Z,96291.31
2023-03-06T05:45:09.657Z,96301.38
2023-03-06T05:47:36.626Z,96293.59
2023-03-06T05:50:08.361Z,96285.72
2023-03-06T05:52:35.087Z,96299.31
2023-03-06T05:55:02.140Z,96292.50
2023-03-06T05:57:28.843Z,96307.47
2023-03-06T05:59:55.585Z,96297.41
2023-03-06T06:02:22.606Z,96293.97
2023-03-06T06:04:49.545Z,96293.44
2023-03-06T06:07:17.165Z,96289.34
2023-03-06T06:09:45.668Z,96304.03
2023-03-06T06:12:12.687Z,96292.69
2023-03-06T06:14:39.540Z,96301.00
2023-03-06T06:17:06.302Z,96295.03
2023-03-06T06:19:33.200Z,96289.53
2023-03-06T06:22:02.624Z,96293.50
2023-03-06T06:24:30.364Z,96290.22
2023-03-06T06:26:58.488Z,96300.38
2023-03-06T06:29:27.006Z,96301.22
2023-03-06T06:31:54.642Z,96303.50
2023-03-06T06:34:22.334Z,96307.44
2023-03-06T06:36:53.155Z,96316.13
2023-03-06T06:39:20.839Z,96306.28
2023-03-06T06:42:02.996Z,96287.81
2023-03-06T06:44:38.346Z,96276.84
2023-03-06T06:47:24.419Z,96280.03
2023-03-06T06:49:53.622Z,96294.13
2023-03-06T06:52:21.112Z,96291.91
2023-03-06T06:54:47.826Z,96292.44
2023-03-06T06:57:14.902Z,96292.81
2023-03-06T06:59:42.100Z,96292.38
2023-03-06T07:02:12.476Z,96290.44
2023-03-06T07:04:52.290Z,96297.34
2023-03-06T07:07:25.371Z,96287.78
2023-03-06T07:09:52.233Z,96272.78
2023-03-06T07:12:19.367Z,96269.44
2023-03-06T07:14:46.871Z,96282.34
2023-03-06T07:17:13.588Z,96279.81
2023-03-06T07:19:40.318Z,96285.38
2023-03-06T07:22:07.673Z,96289.06
2023-03-06T07:24:34.672Z,96276.06
2023-03-06T07:27:02.257Z,96279.38
2023-03-06T07:29:29.462Z,96292.34
2023-03-06T07:31:56.363Z,96285.72
2023-03-06T07:34:23.204Z,96269.97
2023-03-06T07:36:50.936Z,96291.19
2023-03-06T07:39:17.762Z,96291.94
2023-03-06T07:41:44.747Z,96275.84
2023-03-06T07:44:11.688Z,96291.06
2023-03-06T07:46:38.426Z,96290.28
2023-03-06T07:49:05.257Z,96289.81
2023-03-06T07:51:32.163Z,96287.53
2023-03-06T07:53:58.933Z,96288.22
2023-03-06T07:56:25.712Z,96298.34
2023-03-06T07:58:52.463Z,96263.81
2023-03-06T08:01:21.608Z,96295.72
2023-03-06T08:03:50.209Z,96279.16
2023-03-06T08:06:25.550Z,96299.53
2023-03-06T08:08:53.912Z,96297.06
2023-03-06T08:11:22.756Z,96293.50
2023-03-06T08:13:49.726Z,96277.53
2023-03-06T08:16:17.673Z,96297.22
2023-03-06T08:18:46.323Z,96296.06
2023-03-06T08:21:18.313Z,96282.38
2023-03-06T08:23:45.628Z,96283.00
2023-03-06T08:26:15.181Z,96295.50
2023-03-06T08:28:41.990Z,96281.34
2023-03-06T08:31:13.180Z,96294.47
2023-03-06T08:33:40.834Z,96290.69
2023-03-06T08:36:07.781Z,96291.16
2023-03-06T08:38:34.622Z,96287.19
2023-03-06T08:41:05.964Z,96296.72
2023-03-06T08:43:33.849Z,96297.03
2023-03-06T08:46:00.645Z,96282.50
2023-03-06T08:48:28.144Z,96289.09
2023-03-06T08:50:54.988Z,96287.94
2023-03-06T08:53:28.024Z,96283.47
2023-03-06T08:56:04.161Z,96272.59
2023-03-06T08:58:30.867Z,96293.28
2023-03-06T09:00:58.171Z,96294.72
2023-03-06T09:03:25.812Z,96297.97
2023-03-06T09:05:52.570Z,96293.47
2023-03-06T09:08:19.244Z,96279.94
2023-03-06T09:10:47.619Z,96273.75
2023-03-06T09:13:14.978Z,96290.38
2023-03-06T09:15:41.730Z,96291.81
2023-03-06T09:18:19.473Z,96297.63
2023-03-06T09:20:46.160Z,96272.31
2023-03-06T09:23:12.873Z,96295.19
2023-03-06T09:25:39.556Z,96288.84
2023-03-06T09:28:11.646Z,96304.38
2023-03-06T09:30:40.578Z,96289.41
2023-03-06T09:33:07.326Z,96286.59
2023-03-06T09:35:34.050Z,96286.31
2023-03-06T09:38:00.733Z,96291.78
2023-03-06T09:40:55.506Z,96283.31
2023-03-06T09:43:29.774Z,96296.88
2023-03-06T09:45:57.954Z,96274.56
2023-03-06T09:48:37.807Z,96284.13
2023-03-06T09:51:16.474Z,96276.56
2023-03-06T09:54:13.401Z,96285.25
2023-03-06T09:56:47.159Z,96278.81
2023-03-06T09:59:17.470Z,96258.34
2023-03-06T10:02:16.716Z,96285.41
2023-03-06T10:04:49.325Z,96283.88
2023-03-06T10:07:22.629Z,96281.63
2023-03-06T10:10:02.847Z,96284.78
2023-03-06T10:12:38.152Z,96271.13
2023-03-06T10:15:27.035Z,96280.44
2023-03-06T10:17:53.981Z,96265.50
2023-03-06T10:20:27.116Z,96274.50
2023-03-06T10:23:20.942Z,96269.69
2023-03-06T10:26:00.448Z,96270.81
2023-03-06T10:28:42.858Z,96254.69
2023-03-06T10:31:12.626Z,96264.13
2023-03-06T10:33:42.460Z,96259.59
2023-03-06T10:36:15.820Z,96244.88
2023-03-06T10:38:48.567Z,96261.69
2023-03-06T10:41:31.582Z,96265.53
2023-03-06T10:44:01.300Z,96262.84
2023-03-06T10:46:37.980Z,96259.88
2023-03-06T10:49:34.601Z,96255.94
2023-03-06T10:52:20.639Z,96261.19
2023-03-06T10:54:48.425Z,96255.25
2023-03-06T10:57:27.383Z,96254.31
2023-03-06T11:00:04.962Z,96257.09
2023-03-06T11:02:38.698Z,96258.69
2023-03-06T11:05:06.984Z,96250.19
2023-03-06T11:07:35.962Z,96253.88
2023-03-06T11:10:19.713Z,96248.78
2023-03-06T11:12:59.973Z,96250.63
2023-03-06T11:15:28.441Z,96252.75
2023-03-06T11:18:24.026Z,96244.09
2023-03-06T11:20:53.528Z,96246.31
2023-03-06T11:23:38.737Z,96252.59
2023-03-06T11:26:17.477Z,96245.56
2023-03-06T11:28:50.253Z,96235.72
2023-03-06T11:31:21.104Z,96244.44
2023-03-06T11:33:54.939Z,96226.75
2023-03-06T11:36:40.009Z,96218.72
2023-03-06T11:39:23.026Z,96230.59
2023-03-06T11:41:56.977Z,96219.16
2023-03-06T11:44:48.684Z,96226.75
2023-03-06T11:47:42.356Z,96222.94
2023-03-06T11:50:32.229Z,96227.19
2023-03-06T11:53:00.029Z,96225.44
2023-03-06T11:56:05.129Z,96226.88
2023-03-06T11:58:56.518Z,96224.13
2023-03-06T12:01:27.194Z,96227.34
2023-03-06T12:04:16.022Z,96217.25
2023-03-06T12:07:06.072Z,96223.69
2023-03-06T12:09:54.359Z,96223.59
2023-03-06T12:12:47.149Z,96218.94
2023-03-06T12:15:41.486Z,96212.53
2023-03-06T12:18:32.026Z,96214.06
2023-03-06T12:20:58.811Z,96211.59
2023-03-06T12:23:40.338Z,96210.69
2023-03-06T12:26:10.165Z,96206.41
2023-03-06T12:28:58.850Z,96202.59
2023-03-06T12:31:50.054Z,96198.75
2023-03-06T12:34:38.161Z,96191.91
2023-03-06T12:37:52.524Z,96194.06
2023-03-06T12:40:19.215Z,96200.66
2023-03-06T12:43:04.428Z,96196.84
2023-03-06T12:45:33.569Z,96184.00
2023-03-06T12:48:02.790Z,96189.38
2023-03-06T12:50:30.975Z,96180.50
2023-03-06T12:53:12.702Z,96183.91
2023-03-06T12:55:45.297Z,96197.41
2023-03-06T12:58:30.293Z,96202.94
2023-03-06T13:01:04.218Z,96198.59
2023-03-06T13:03:49.575Z,96195.25
2023-03-06T13:06:50.372Z,96195.16
2023-03-06T13:09:39.368Z,96188.78
2023-03-06T13:12:55.866Z,96191.91
2023-03-06T13:15:34.617Z,96190.34
2023-03-06T13:18:02.485Z,96181.91
2023-03-06T13:20:38.855Z,96189.59
2023-03-06T13:23:33.436Z,96192.78
2023-03-06T13:26:31.145Z,96188.66
2023-03-06T13:28:58.708Z,96182.53
2023-03-06T13:31:36.433Z,96185.28
2023-03-06T13:34:22.866Z,96181.66
2023-03-06T13:36:49.759Z,96178.81
2023-03-06T13:39:16.495Z,96168.31
2023-03-06T13:41:59.334Z,96181.13
2023-03-06T13:44:26.069Z,96179.94
2023-03-06T13:47:21.734Z,96167.28
2023-03-06T13:49:49.118Z,96166.13
2023-03-06T13:52:30.092Z,96174.03
2023-03-06T13:55:19.502Z,96179.09
2023-03-06T13:57:46.135Z,96167.88
2023-03-06T14:00:38.125Z,96164.72
2023-03-06T14:03:10.810Z,96164.66
2023-03-06T14:05:45.494Z,96154.44
2023-03-06T14:08:32.580Z,96146.38
2023-03-06T14:11:20.008Z,96154.56
2023-03-06T14:13:50.901Z,96155.00
2023-03-06T14:16:21.574Z,96157.88
2023-03-06T14:18:50.819Z,96156.84
2023-03-06T14:21:33.477Z,96132.66
2023-03-06T14:24:02.995Z,96166.47
2023-03-06T14:26:45.072Z,96155.72
2023-03-06T14:29:23.460Z,96156.63
2023-03-06T14:31:55.928Z,96165.56
2023-03-06T14:34:25.995Z,96155.22
2023-03-06T14:36:55.960Z,96151.28
2023-03-06T14:39:44.212Z,96144.81
2023-03-06T14:42:18.963Z,96137.53
2023-03-06T14:44:49.953Z,96156.88
2023-03-06T14:47:28.645Z,96153.09
2023-03-06T14:50:37.167Z,96158.69
2023-03-06T14:53:17.566Z,96145.25
2023-03-06T14:55:53.700Z,96135.06
2023-03-06T14:58:27.775Z,96144.00
2023-03-06T15:00:56.636Z,96151.41
2023-03-06T15:03:55.266Z,96150.75
2023-03-06T15:06:44.028Z,96142.88
2023-03-06T15:09:36.020Z,96155.91
2023-03-06T15:12:07.187Z,96153.97
2023-03-06T15:14:39.791Z,96144.13
2023-03-06T15:17:18.781Z,96150.72
2023-03-06T15:19:47.876Z,96143.00
2023-03-06T15:22:50.428Z,96153.25
2023-03-06T15:25:30.234Z,96133.03
2023-03-06T15:28:21.570Z,96140.03
2023-03-06T15:31:22.670Z,96110.22
2023-03-06T15:34:03.792Z,96163.59
2023-03-06T15:36:33.663Z,96148.16
2023-03-06T15:39:01.039Z,96140.50
2023-03-06T15:41:38.599Z,96128.50
2023-03-06T15:44:12.696Z,96128.97
2023-03-06T15:46:39.572Z,96136.00
2023-03-06T15:49:14.766Z,96165.69
2023-03-06T15:51:41.544Z,96137.28
2023-03-06T15:54:12.421Z,96116.72
2023-03-06T15:56:43.377Z,96116.25
2023-03-06T15:59:23.693Z,96161.31
2023-03-06T16:01:51.152Z,96170.97
2023-03-06T16:04:19.844Z,96144.63
2023-03-06T16:06:46.679Z,96165.84
2023-03-06T16:09:14.266Z,96169.88
2023-03-06T16:11:46.766Z,96185.72
2023-03-06T16:14:21.368Z,96171.44
2023-03-06T16:16:48.841Z,96188.53
2023-03-06T16:19:25.939Z,96181.34
2023-03-06T16:21:54.009Z,96183.34
2023-03-06T16:24:20.994Z,96177.00
2023-03-06T16:26:53.053Z,96177.16
2023-03-06T16:29:27.590Z,96185.97
2023-03-06T16:31:56.523Z,96165.63
2023-03-06T16:34:24.015Z,96188.09
2023-03-06T16:36:50.895Z,96178.03
2023-03-06T16:39:23.244Z,96175.72
2023-03-06T16:41:50.723Z,96187.63
2023-03-06T16:44:18.043Z,96181.44
2023-03-06T16:46:47.087Z,96173.66
2023-03-06T16:49:18.966Z,96172.81
2023-03-06T16:51:45.716Z,96168.59
2023-03-06T16:54:12.932Z,96172.19
2023-03-06T16:56:40.115Z,96178.69
2023-03-06T16:59:06.997Z,96180.00
2023-03-06T17:01:33.858Z,96163.25
2023-03-06T17:04:00.715Z,96165.34
2023-03-06T17:06:27.946Z,96165.97
2023-03-06T17:08:54.833Z,96191.38
2023-03-06T17:11:21.630Z,96175.28
2023-03-06T17:13:49.202Z,96196.25
2023-03-06T17:16:16.668Z,96168.28
2023-03-06T17:18:45.012Z,96196.59
2023-03-06T17:21:12.799Z,96191.72
2023-03-06T17:23:39.526Z,96204.41
2023-03-06T17:26:09.242Z,96197.59
2023-03-06T17:28:37.480Z,96170.38
2023-03-06T17:31:22.112Z,96195.44
2023-03-06T17:33:49.503Z,96212.56
2023-03-06T17:36:16.865Z,96214.84
2023-03-06T17:38:43.778Z,96221.97
2023-03-06T17:41:14.081Z,96200.47
2023-03-06T17:43:41.074Z,96193.31
2023-03-06T17:46:10.025Z,96218.56
2023-03-06T17:48:37.016Z,96215.63
2023-03-06T17:51:04.189Z,96240.03
2023-03-06T17:53:31.236Z,96211.53
2023-03-06T17:55:58.294Z,96239.34
2023-03-06T17:58:26.287Z,96230.09
2023-03-06T18:00:53.589Z,96231.84
2023-03-06T18:03:20.791Z,96222.09
2023-03-06T18:05:47.598Z,96210.84
2023-03-06T18:08:14.327Z,96240.16
2023-03-06T18:10:43.505Z,96240.97
2023-03-06T18:13:10.553Z,96216.69
2023-03-06T18:15:43.168Z,96235.22
2023-03-06T18:18:09.966Z,96228.25
2023-03-06T18:20:43.939Z,96219.28
2023-03-06T18:23:11.887Z,96211.63
2023-03-06T18:25:38.701Z,96226.41
2023-03-06T18:28:06.139Z,96247.13
2023-03-06T18:30:37.818Z,96241.69
2023-03-06T18:33:04.803Z,96247.56
2023-03-06T18:35:32.536Z,96251.47
2023-03-06T18:38:02.488Z,96250.97
2023-03-06T18:40:29.242Z,96200.44
2023-03-06T18:42:56.006Z,96252.59
2023-03-06T18:45:22.795Z,96243.28
2023-03-06T18:47:49.562Z,96247.38
2023-03-06T18:50:17.732Z,96242.63
2023-03-06T18:52:47.010Z,96246.88
2023-03-06T18:55:13.792Z,96209.88
2023-03-06T18:57:40.992Z,96254.03
2023-03-06T19:00:08.762Z,96257.59
2023-03-06T19:02:35.702Z,96243.75
2023-03-06T19:05:02.839Z,96250.06
2023-03-06T19:07:29.640Z,96253.50
2023-03-06T19:09:56.378Z,96265.38
2023-03-06T19:12:23.742Z,96232.75
2023-03-06T19:14:50.613Z,96201.66
2023-03-06T19:17:17.483Z,96254.31
2023-03-06T19:19:44.250Z,96251.81
2023-03-06T19:22:11.086Z,96238.94
2023-03-06T19:24:37.812Z,96225.59
2023-03-06T19:27:11.854Z,96262.06
2023-03-06T19:29:38.685Z,96240.38
2023-03-06T19:32:08.694Z,96262.53
2023-03-06T19:34:35.524Z,96258.31
2023-03-06T19:37:02.954Z,96262.69
2023-03-06T19:39:29.791Z,96253.13
2023-03-06T19:41:56.585Z,96246.44
2023-03-06T19:44:23.445Z,96179.25
2023-03-06T19:46:50.439Z,96238.13
2023-03-06T19:49:18.230Z,96249.38
2023-03-06T19:51:45.009Z,96241.22
2023-03-06T19:54:13.380Z,96248.72
2023-03-06T19:56:40.199Z,96231.97
2023-03-06T19:59:06.950Z,96260.94
2023-03-06T20:01:34.489Z,96252.16
2023-03-06T20:04:02.250Z,96248.72
2023-03-06T20:06:33.661Z,96257.69
2023-03-06T20:09:02.656Z,96243.84
2023-03-06T20:11:30.091Z,96246.28
2023-03-06T20:13:58.768Z,96236.19
2023-03-06T20:16:28.124Z,96247.75
2023-03-06T20:18:58.115Z,96201.28
2023-03-06T20:21:25.982Z,96245.50
2023-03-06T20:23:53.631Z,96237.53
2023-03-06T20:26:20.869Z,96238.63
2023-03-06T20:28:47.872Z,96258.50
2023-03-06T20:31:17.021Z,96245.16
2023-03-06T20:33:45.190Z,96242.06
2023-03-06T20:36:14.452Z,96255.25
2023-03-06T20:38:41.734Z,96249.03
2023-03-06T20:41:17.935Z,96221.84
2023-03-06T20:43:44.852Z,96235.84
2023-03-06T20:46:13.168Z,96247.09
2023-03-06T20:48:41.610Z,96255.91
2023-03-06T20:51:16.199Z,96213.38
2023-03-06T20:53:42.965Z,96243.66
2023-03-06T20:56:14.979Z,96233.59
2023-03-06T20:58:41.762Z,96218.91
2023-03-06T21:01:08.901Z,96241.91
2023-03-06T21:03:35.636Z,96226.56
2023-03-06T21:06:02.450Z,96170.13
2023-03-06T21:08:34.479Z,96241.41
2023-03-06T21:11:01.212Z,96233.75
2023-03-06T21:13:27.886Z,96218.91
2023-03-06T21:15:55.894Z,96234.25
2023-03-06T21:18:22.575Z,96229.06
2023-03-06T21:20:49.580Z,96238.16
2023-03-06T21:23:16.333Z,96225.63
2023-03-06T21:25:52.904Z,96223.69
2023-03-06T21:28:19.855Z,96208.84
2023-03-06T21:30:46.661Z,96203.81
2023-03-06T21:33:14.014Z,96203.38
2023-03-06T21:35:42.049Z,96206.59
2023-03-06T21:38:08.864Z,96205.59
2023-03-06T21:40:35.833Z,96211.00
2023-03-06T21:43:03.535Z,96200.88
2023-03-06T21:45:31.428Z,96212.13
2023-03-06T21:48:01.836Z,96212.13
2023-03-06T21:50:28.875Z,96206.41
2023-03-06T21:52:56.567Z,96200.88
2023-03-06T21:55:23.528Z,96205.31
2023-03-06T21:57:51.431Z,96175.97
2023-03-06T22:00:19.600Z,96183.16
2023-03-06T22:02:47.166Z,96197.50
2023-03-06T22:05:14.059Z,96185.28
2023-03-06T22:07:40.766Z,96196.03
2023-03-06T22:10:09.571Z,96192.25
2023-03-06T22:12:36.472Z,96203.50
2023-03-06T22:15:03.323Z,96179.06
2023-03-06T22:17:31.160Z,96169.50
2023-03-06T22:19:58.038Z,96195.06
2023-03-06T22:22:25.285Z,96191.81
2023-03-06T22:24:51.999Z,96168.00
2023-03-06T22:27:18.680Z,96180.41
2023-03-06T22:29:46.039Z,96177.97
2023-03-06T22:32:12.989Z,96178.81
2023-03-06T22:34:39.846Z,96175.22
2023-03-06T22:37:06.676Z,96169.69
2023-03-06T22:39:33.436Z,96152.63
2023-03-06T22:42:00.211Z,96178.66
2023-03-06T22:44:26.945Z,96151.13
2023-03-06T22:46:53.871Z,96182.19
2023-03-06T22:49:20.677Z,96163.81
2023-03-06T22:51:47.431Z,96161.38
2023-03-06T22:54:14.148Z,96177.31
2023-03-06T22:56:40.814Z,96175.69
2023-03-06T22:59:07.549Z,96159.75
2023-03-06T23:01:34.959Z,96172.94
2023-03-06T23:04:04.032Z,96178.13
2023-03-06T23:06:43.252Z,96165.47
2023-03-06T23:09:16.556Z,96176.38
2023-03-06T23:12:03.324Z,96169.19
2023-03-06T23:14:51.133Z,96170.81
2023-03-06T23:17:36.711Z,96165.56
2023-03-06T23:20:22.626Z,96175.03
2023-03-06T23:23:07.947Z,96163.47
2023-03-06T23:25:40.445Z,96164.13
2023-03-06T23:28:07.717Z,96164.28
2023-03-06T23:30:34.425Z,96164.63
2023-03-06T23:33:01.216Z,96174.22
2023-03-06T23:35:28.437Z,96159.75
2023-03-06T23:37:55.250Z,96159.06
2023-03-06T23:40:22.389Z,96151.72
2023-03-06T23:42:49.205Z,96167.22
2023-03-06T23:45:16.360Z,96166.06
2023-03-06T23:47:43.076Z,96161.03
2023-03-06T23:50:10.497Z,96161.69
2023-03-06T23:52:38.163Z,96160.22
2023-03-06T23:55:05.789Z,96140.56
2023-03-06T23:57:32.815Z,96151.63
2023-03-06T23:59:59.489Z,96140.25
